NHK weather

Patuxent River Naval Air Station (Trapnell Field)
Patuxent River, Maryland, United States

Public forecast

Using degrees Fahrenheit for public forecast. Weather courtesy of forecast.io.

METAR (pilot weather report)

Retrieved 2019/04/25 22:52 UTC (30 minutes ago):

KNHK 252252Z 09007KT 10SM FEW035 SCT120 BKN260 19/14 A2986 RMK AO2 SLP110 T01940139

TAF (pilot weather forecast)

Forecast is more than 12 hours old.

Retrieved 2015/11/16 23:24 UTC (3 years ago):

TAF KNHK 162300Z 1623/1723 VRB04KT 9999 FEW160 SCT250 542709 523601 QNH3022INS FM170500 VRB04KT 9999 SCT160 BKN250 500000 QNH3026INS FM170900 05006KT 9999 FEW020 BKN160 OVC250 621608 QNH3030INS FM171400 05010KT 9999 FEW020 SCT160 SCT250 600000 QNH3037INS FM171900 06010KT 9999 BKN025 BKN250 QNH3040INS AUTOMATED SENSOR METWATCH 1704 TIL 1709 T08/1709Z T16/1719Z FN20013